sensor_id;sensor_type;location;lat;lon;timestamp;P1;durP1;ratioP1;P2;durP2;ratioP2
6209;SDS011;3138;52.550;13.148;2023-04-25T00:00:20;7.33;;;3.40;;
6209;SDS011;3138;52.550;13.148;2023-04-25T00:02:47;8.17;;;3.57;;
6209;SDS011;3138;52.550;13.148;2023-04-25T00:05:15;4.63;;;2.67;;
6209;SDS011;3138;52.550;13.148;2023-04-25T00:07:45;5.60;;;3.70;;
6209;SDS011;3138;52.550;13.148;2023-04-25T00:10:12;13.10;;;4.27;;
6209;SDS011;3138;52.550;13.148;2023-04-25T00:12:39;14.33;;;3.67;;
6209;SDS011;3138;52.550;13.148;2023-04-25T00:15:06;4.83;;;2.70;;
6209;SDS011;3138;52.550;13.148;2023-04-25T00:17:35;15.93;;;4.13;;
6209;SDS011;3138;52.550;13.148;2023-04-25T00:20:03;10.30;;;3.50;;
6209;SDS011;3138;52.550;13.148;2023-04-25T00:22:34;3.50;;;3.17;;
6209;SDS011;3138;52.550;13.148;2023-04-25T00:25:02;19.40;;;3.93;;
6209;SDS011;3138;52.550;13.148;2023-04-25T00:27:29;5.30;;;3.00;;
6209;SDS011;3138;52.550;13.148;2023-04-25T00:29:56;11.40;;;3.80;;
6209;SDS011;3138;52.550;13.148;2023-04-25T00:32:23;11.37;;;3.80;;
6209;SDS011;3138;52.550;13.148;2023-04-25T00:34:51;17.47;;;5.07;;
6209;SDS011;3138;52.550;13.148;2023-04-25T00:37:18;12.30;;;3.30;;
6209;SDS011;3138;52.550;13.148;2023-04-25T00:39:45;6.17;;;3.70;;
6209;SDS011;3138;52.550;13.148;2023-04-25T00:42:12;9.40;;;3.67;;
6209;SDS011;3138;52.550;13.148;2023-04-25T00:44:39;14.23;;;4.20;;
6209;SDS011;3138;52.550;13.148;2023-04-25T00:47:08;5.93;;;3.47;;
6209;SDS011;3138;52.550;13.148;2023-04-25T00:49:37;14.13;;;3.70;;
6209;SDS011;3138;52.550;13.148;2023-04-25T00:52:05;8.77;;;3.60;;
6209;SDS011;3138;52.550;13.148;2023-04-25T00:54:32;12.57;;;3.80;;
6209;SDS011;3138;52.550;13.148;2023-04-25T00:56:59;8.77;;;4.30;;
6209;SDS011;3138;52.550;13.148;2023-04-25T00:59:27;14.37;;;3.80;;
6209;SDS011;3138;52.550;13.148;2023-04-25T01:01:54;12.67;;;4.23;;
6209;SDS011;3138;52.550;13.148;2023-04-25T01:04:21;7.83;;;4.50;;
6209;SDS011;3138;52.550;13.148;2023-04-25T01:06:48;9.87;;;4.47;;
6209;SDS011;3138;52.550;13.148;2023-04-25T01:09:17;19.33;;;3.83;;
6209;SDS011;3138;52.550;13.148;2023-04-25T01:11:44;10.43;;;3.97;;
6209;SDS011;3138;52.550;13.148;2023-04-25T01:14:11;17.47;;;3.70;;
6209;SDS011;3138;52.550;13.148;2023-04-25T01:16:38;9.63;;;4.07;;
6209;SDS011;3138;52.550;13.148;2023-04-25T01:19:06;30.33;;;3.67;;
6209;SDS011;3138;52.550;13.148;2023-04-25T01:21:38;8.10;;;4.13;;
6209;SDS011;3138;52.550;13.148;2023-04-25T01:24:05;11.20;;;4.17;;
6209;SDS011;3138;52.550;13.148;2023-04-25T01:26:33;19.53;;;4.40;;
6209;SDS011;3138;52.550;13.148;2023-04-25T01:29:00;6.60;;;4.00;;
6209;SDS011;3138;52.550;13.148;2023-04-25T01:31:27;4.97;;;3.57;;
6209;SDS011;3138;52.550;13.148;2023-04-25T01:33:55;15.27;;;5.30;;
6209;SDS011;3138;52.550;13.148;2023-04-25T01:36:22;11.20;;;3.30;;
6209;SDS011;3138;52.550;13.148;2023-04-25T01:38:50;9.37;;;4.20;;
6209;SDS011;3138;52.550;13.148;2023-04-25T01:41:17;10.10;;;4.03;;
6209;SDS011;3138;52.550;13.148;2023-04-25T01:43:45;25.57;;;5.67;;
6209;SDS011;3138;52.550;13.148;2023-04-25T01:46:12;7.83;;;3.83;;
6209;SDS011;3138;52.550;13.148;2023-04-25T01:48:39;14.60;;;3.87;;
6209;SDS011;3138;52.550;13.148;2023-04-25T01:51:05;10.23;;;5.10;;
6209;SDS011;3138;52.550;13.148;2023-04-25T01:53:32;12.40;;;5.10;;
6209;SDS011;3138;52.550;13.148;2023-04-25T01:56:01;13.23;;;5.20;;
6209;SDS011;3138;52.550;13.148;2023-04-25T01:58:28;11.57;;;4.83;;
6209;SDS011;3138;52.550;13.148;2023-04-25T02:00:55;12.00;;;5.20;;
6209;SDS011;3138;52.550;13.148;2023-04-25T02:03:22;15.73;;;4.10;;
6209;SDS011;3138;52.550;13.148;2023-04-25T02:05:49;14.07;;;5.33;;
6209;SDS011;3138;52.550;13.148;2023-04-25T02:08:16;14.03;;;5.57;;
6209;SDS011;3138;52.550;13.148;2023-04-25T02:10:43;11.40;;;5.23;;
6209;SDS011;3138;52.550;13.148;2023-04-25T02:13:11;16.83;;;5.07;;
6209;SDS011;3138;52.550;13.148;2023-04-25T02:15:38;9.60;;;5.70;;
6209;SDS011;3138;52.550;13.148;2023-04-25T02:18:06;22.63;;;5.20;;
6209;SDS011;3138;52.550;13.148;2023-04-25T02:20:33;14.43;;;4.90;;
6209;SDS011;3138;52.550;13.148;2023-04-25T02:23:00;22.33;;;5.67;;
6209;SDS011;3138;52.550;13.148;2023-04-25T02:25:27;5.53;;;4.57;;
6209;SDS011;3138;52.550;13.148;2023-04-25T02:27:56;17.63;;;5.30;;
6209;SDS011;3138;52.550;13.148;2023-04-25T02:30:25;14.53;;;4.93;;
6209;SDS011;3138;52.550;13.148;2023-04-25T02:32:51;15.13;;;5.80;;
6209;SDS011;3138;52.550;13.148;2023-04-25T02:35:19;13.90;;;5.23;;
6209;SDS011;3138;52.550;13.148;2023-04-25T02:37:45;21.73;;;5.40;;
6209;SDS011;3138;52.550;13.148;2023-04-25T02:40:12;15.47;;;5.70;;
6209;SDS011;3138;52.550;13.148;2023-04-25T02:42:39;10.03;;;5.90;;
6209;SDS011;3138;52.550;13.148;2023-04-25T02:45:09;17.73;;;6.17;;
6209;SDS011;3138;52.550;13.148;2023-04-25T02:47:38;18.90;;;5.70;;
6209;SDS011;3138;52.550;13.148;2023-04-25T02:50:05;16.93;;;5.67;;
6209;SDS011;3138;52.550;13.148;2023-04-25T02:52:32;10.00;;;5.77;;
6209;SDS011;3138;52.550;13.148;2023-04-25T02:54:59;10.93;;;5.93;;
6209;SDS011;3138;52.550;13.148;2023-04-25T02:57:26;16.90;;;6.03;;
6209;SDS011;3138;52.550;13.148;2023-04-25T03:00:02;13.50;;;5.63;;
6209;SDS011;3138;52.550;13.148;2023-04-25T03:02:31;13.40;;;6.07;;
6209;SDS011;3138;52.550;13.148;2023-04-25T03:05:01;18.50;;;5.37;;
6209;SDS011;3138;52.550;13.148;2023-04-25T03:07:28;20.23;;;6.37;;
6209;SDS011;3138;52.550;13.148;2023-04-25T03:09:55;11.47;;;6.00;;
6209;SDS011;3138;52.550;13.148;2023-04-25T03:12:22;13.90;;;6.03;;
6209;SDS011;3138;52.550;13.148;2023-04-25T03:14:49;9.40;;;5.70;;
6209;SDS011;3138;52.550;13.148;2023-04-25T03:17:16;21.40;;;6.30;;
6209;SDS011;3138;52.550;13.148;2023-04-25T03:19:43;19.70;;;5.90;;
6209;SDS011;3138;52.550;13.148;2023-04-25T03:22:11;12.30;;;6.67;;
6209;SDS011;3138;52.550;13.148;2023-04-25T03:24:38;20.00;;;6.53;;
6209;SDS011;3138;52.550;13.148;2023-04-25T03:27:05;15.90;;;6.13;;
6209;SDS011;3138;52.550;13.148;2023-04-25T03:29:32;7.67;;;5.97;;
6209;SDS011;3138;52.550;13.148;2023-04-25T03:31:58;16.23;;;5.00;;
6209;SDS011;3138;52.550;13.148;2023-04-25T03:34:25;15.10;;;5.93;;
6209;SDS011;3138;52.550;13.148;2023-04-25T03:36:54;17.30;;;6.07;;
6209;SDS011;3138;52.550;13.148;2023-04-25T03:39:25;8.77;;;5.60;;
6209;SDS011;3138;52.550;13.148;2023-04-25T03:41:52;16.80;;;5.63;;
6209;SDS011;3138;52.550;13.148;2023-04-25T03:44:19;15.67;;;6.40;;
6209;SDS011;3138;52.550;13.148;2023-04-25T03:46:46;19.03;;;6.00;;
6209;SDS011;3138;52.550;13.148;2023-04-25T03:49:13;20.83;;;6.10;;
6209;SDS011;3138;52.550;13.148;2023-04-25T03:51:40;16.30;;;5.50;;
6209;SDS011;3138;52.550;13.148;2023-04-25T03:54:06;15.23;;;6.27;;
6209;SDS011;3138;52.550;13.148;2023-04-25T03:56:35;9.87;;;4.90;;
6209;SDS011;3138;52.550;13.148;2023-04-25T03:59:01;16.73;;;5.83;;
6209;SDS011;3138;52.550;13.148;2023-04-25T04:01:28;26.17;;;6.20;;
6209;SDS011;3138;52.550;13.148;2023-04-25T04:03:55;19.57;;;4.63;;
6209;SDS011;3138;52.550;13.148;2023-04-25T04:06:22;15.37;;;5.97;;
6209;SDS011;3138;52.550;13.148;2023-04-25T04:08:49;15.73;;;5.43;;
6209;SDS011;3138;52.550;13.148;2023-04-25T04:11:16;16.33;;;5.70;;
6209;SDS011;3138;52.550;13.148;2023-04-25T04:13:44;20.73;;;5.97;;
6209;SDS011;3138;52.550;13.148;2023-04-25T04:16:11;25.43;;;7.17;;
6209;SDS011;3138;52.550;13.148;2023-04-25T04:18:38;16.23;;;5.33;;
6209;SDS011;3138;52.550;13.148;2023-04-25T04:21:05;22.67;;;6.10;;
6209;SDS011;3138;52.550;13.148;2023-04-25T04:23:31;17.50;;;6.03;;
6209;SDS011;3138;52.550;13.148;2023-04-25T04:25:58;12.80;;;5.80;;
6209;SDS011;3138;52.550;13.148;2023-04-25T04:28:26;9.20;;;5.70;;
6209;SDS011;3138;52.550;13.148;2023-04-25T04:30:54;12.03;;;5.40;;
6209;SDS011;3138;52.550;13.148;2023-04-25T04:33:21;15.30;;;5.90;;
6209;SDS011;3138;52.550;13.148;2023-04-25T04:35:49;9.67;;;5.07;;
6209;SDS011;3138;52.550;13.148;2023-04-25T04:38:18;21.60;;;5.70;;
6209;SDS011;3138;52.550;13.148;2023-04-25T04:40:46;21.90;;;6.80;;
6209;SDS011;3138;52.550;13.148;2023-04-25T04:43:13;12.40;;;5.37;;
6209;SDS011;3138;52.550;13.148;2023-04-25T04:45:42;15.83;;;6.53;;
6209;SDS011;3138;52.550;13.148;2023-04-25T04:48:10;19.93;;;5.53;;
6209;SDS011;3138;52.550;13.148;2023-04-25T04:50:39;18.50;;;5.33;;
6209;SDS011;3138;52.550;13.148;2023-04-25T04:53:06;14.73;;;5.83;;
6209;SDS011;3138;52.550;13.148;2023-04-25T04:55:33;15.10;;;5.70;;
6209;SDS011;3138;52.550;13.148;2023-04-25T04:58:00;8.73;;;4.67;;
6209;SDS011;3138;52.550;13.148;2023-04-25T05:00:27;17.70;;;6.73;;
6209;SDS011;3138;52.550;13.148;2023-04-25T05:02:54;13.30;;;5.50;;
6209;SDS011;3138;52.550;13.148;2023-04-25T05:05:22;17.97;;;6.47;;
6209;SDS011;3138;52.550;13.148;2023-04-25T05:07:49;13.33;;;5.17;;
6209;SDS011;3138;52.550;13.148;2023-04-25T05:10:16;19.40;;;5.47;;
6209;SDS011;3138;52.550;13.148;2023-04-25T05:12:43;11.27;;;5.97;;
6209;SDS011;3138;52.550;13.148;2023-04-25T05:15:10;16.67;;;5.90;;
6209;SDS011;3138;52.550;13.148;2023-04-25T05:17:37;14.20;;;6.40;;
6209;SDS011;3138;52.550;13.148;2023-04-25T05:20:05;16.80;;;5.87;;
6209;SDS011;3138;52.550;13.148;2023-04-25T05:22:35;16.43;;;6.30;;
6209;SDS011;3138;52.550;13.148;2023-04-25T05:25:02;15.07;;;5.43;;
6209;SDS011;3138;52.550;13.148;2023-04-25T05:27:29;15.87;;;7.60;;
6209;SDS011;3138;52.550;13.148;2023-04-25T05:29:56;17.03;;;6.40;;
6209;SDS011;3138;52.550;13.148;2023-04-25T05:32:23;10.27;;;6.83;;
6209;SDS011;3138;52.550;13.148;2023-04-25T05:34:51;13.23;;;6.50;;
6209;SDS011;3138;52.550;13.148;2023-04-25T05:37:17;26.13;;;7.10;;
6209;SDS011;3138;52.550;13.148;2023-04-25T05:39:46;16.57;;;6.23;;
6209;SDS011;3138;52.550;13.148;2023-04-25T05:42:12;14.80;;;7.67;;
6209;SDS011;3138;52.550;13.148;2023-04-25T05:44:39;13.20;;;6.43;;
6209;SDS011;3138;52.550;13.148;2023-04-25T05:47:06;18.80;;;7.20;;
6209;SDS011;3138;52.550;13.148;2023-04-25T05:49:33;17.40;;;8.20;;
6209;SDS011;3138;52.550;13.148;2023-04-25T05:52:00;19.83;;;7.40;;
6209;SDS011;3138;52.550;13.148;2023-04-25T05:54:27;18.10;;;7.70;;
6209;SDS011;3138;52.550;13.148;2023-04-25T05:56:55;13.50;;;6.83;;
6209;SDS011;3138;52.550;13.148;2023-04-25T05:59:23;18.80;;;8.50;;
6209;SDS011;3138;52.550;13.148;2023-04-25T06:01:50;26.83;;;7.47;;
6209;SDS011;3138;52.550;13.148;2023-04-25T06:04:17;15.47;;;7.13;;
6209;SDS011;3138;52.550;13.148;2023-04-25T06:06:44;20.83;;;7.17;;
6209;SDS011;3138;52.550;13.148;2023-04-25T06:09:11;11.93;;;7.10;;
6209;SDS011;3138;52.550;13.148;2023-04-25T06:11:38;23.07;;;8.13;;
6209;SDS011;3138;52.550;13.148;2023-04-25T06:14:06;26.03;;;7.27;;
6209;SDS011;3138;52.550;13.148;2023-04-25T06:16:33;27.60;;;7.63;;
6209;SDS011;3138;52.550;13.148;2023-04-25T06:19:00;23.33;;;8.53;;
6209;SDS011;3138;52.550;13.148;2023-04-25T06:21:27;15.17;;;7.07;;
6209;SDS011;3138;52.550;13.148;2023-04-25T06:23:53;30.63;;;7.60;;
6209;SDS011;3138;52.550;13.148;2023-04-25T06:26:20;19.70;;;7.80;;
6209;SDS011;3138;52.550;13.148;2023-04-25T06:28:47;21.53;;;6.70;;
6209;SDS011;3138;52.550;13.148;2023-04-25T06:31:15;35.07;;;7.93;;
6209;SDS011;3138;52.550;13.148;2023-04-25T06:33:42;14.60;;;6.10;;
6209;SDS011;3138;52.550;13.148;2023-04-25T06:36:09;19.80;;;7.63;;
6209;SDS011;3138;52.550;13.148;2023-04-25T06:38:36;21.90;;;8.47;;
6209;SDS011;3138;52.550;13.148;2023-04-25T06:41:02;15.77;;;7.23;;
6209;SDS011;3138;52.550;13.148;2023-04-25T06:43:30;19.30;;;7.60;;
6209;SDS011;3138;52.550;13.148;2023-04-25T06:45:58;14.30;;;6.70;;
6209;SDS011;3138;52.550;13.148;2023-04-25T06:48:26;11.70;;;6.17;;
6209;SDS011;3138;52.550;13.148;2023-04-25T06:50:53;12.33;;;6.37;;
6209;SDS011;3138;52.550;13.148;2023-04-25T06:53:21;25.43;;;6.40;;
6209;SDS011;3138;52.550;13.148;2023-04-25T06:55:48;16.00;;;7.43;;
6209;SDS011;3138;52.550;13.148;2023-04-25T06:58:15;21.70;;;6.90;;
6209;SDS011;3138;52.550;13.148;2023-04-25T07:00:42;27.63;;;6.90;;
6209;SDS011;3138;52.550;13.148;2023-04-25T07:03:11;21.17;;;6.63;;
6209;SDS011;3138;52.550;13.148;2023-04-25T07:05:39;16.83;;;6.80;;
6209;SDS011;3138;52.550;13.148;2023-04-25T07:08:06;13.23;;;5.50;;
6209;SDS011;3138;52.550;13.148;2023-04-25T07:10:32;17.53;;;6.20;;
6209;SDS011;3138;52.550;13.148;2023-04-25T07:13:00;21.73;;;5.93;;
6209;SDS011;3138;52.550;13.148;2023-04-25T07:15:26;20.13;;;6.40;;
6209;SDS011;3138;52.550;13.148;2023-04-25T07:17:53;27.13;;;5.80;;
6209;SDS011;3138;52.550;13.148;2023-04-25T07:20:20;19.50;;;5.70;;
6209;SDS011;3138;52.550;13.148;2023-04-25T07:22:48;20.23;;;5.87;;
6209;SDS011;3138;52.550;13.148;2023-04-25T07:25:16;27.93;;;5.43;;
6209;SDS011;3138;52.550;13.148;2023-04-25T07:27:43;32.67;;;6.43;;
6209;SDS011;3138;52.550;13.148;2023-04-25T07:30:10;42.27;;;6.60;;
6209;SDS011;3138;52.550;13.148;2023-04-25T07:32:38;29.63;;;5.50;;
6209;SDS011;3138;52.550;13.148;2023-04-25T07:35:05;30.27;;;5.97;;
6209;SDS011;3138;52.550;13.148;2023-04-25T07:37:33;37.47;;;7.23;;
6209;SDS011;3138;52.550;13.148;2023-04-25T07:40:01;22.70;;;5.40;;
6209;SDS011;3138;52.550;13.148;2023-04-25T07:42:30;29.83;;;6.20;;
6209;SDS011;3138;52.550;13.148;2023-04-25T07:44:57;44.37;;;6.70;;
6209;SDS011;3138;52.550;13.148;2023-04-25T07:47:23;35.93;;;5.70;;
6209;SDS011;3138;52.550;13.148;2023-04-25T07:49:50;27.07;;;5.67;;
6209;SDS011;3138;52.550;13.148;2023-04-25T07:52:17;33.30;;;6.87;;
6209;SDS011;3138;52.550;13.148;2023-04-25T07:54:44;41.47;;;6.93;;
6209;SDS011;3138;52.550;13.148;2023-04-25T07:57:13;29.23;;;5.00;;
6209;SDS011;3138;52.550;13.148;2023-04-25T07:59:42;39.70;;;5.93;;
6209;SDS011;3138;52.550;13.148;2023-04-25T08:02:08;30.67;;;5.63;;
6209;SDS011;3138;52.550;13.148;2023-04-25T08:04:35;26.47;;;5.30;;
6209;SDS011;3138;52.550;13.148;2023-04-25T08:07:02;30.97;;;5.43;;
6209;SDS011;3138;52.550;13.148;2023-04-25T08:09:29;34.37;;;6.23;;
6209;SDS011;3138;52.550;13.148;2023-04-25T08:11:59;20.80;;;5.40;;
6209;SDS011;3138;52.550;13.148;2023-04-25T08:14:28;31.10;;;6.27;;
6209;SDS011;3138;52.550;13.148;2023-04-25T08:17:00;33.17;;;5.90;;
6209;SDS011;3138;52.550;13.148;2023-04-25T08:19:28;26.23;;;5.17;;
6209;SDS011;3138;52.550;13.148;2023-04-25T08:21:55;20.53;;;4.63;;
6209;SDS011;3138;52.550;13.148;2023-04-25T08:24:21;19.50;;;4.67;;
6209;SDS011;3138;52.550;13.148;2023-04-25T08:26:48;29.87;;;4.80;;
6209;SDS011;3138;52.550;13.148;2023-04-25T08:29:15;73.20;;;6.30;;
6209;SDS011;3138;52.550;13.148;2023-04-25T08:31:45;27.87;;;5.13;;
6209;SDS011;3138;52.550;13.148;2023-04-25T08:34:13;22.63;;;4.90;;
6209;SDS011;3138;52.550;13.148;2023-04-25T08:36:40;15.73;;;4.50;;
6209;SDS011;3138;52.550;13.148;2023-04-25T08:39:07;22.20;;;4.63;;
6209;SDS011;3138;52.550;13.148;2023-04-25T08:41:34;29.67;;;6.90;;
6209;SDS011;3138;52.550;13.148;2023-04-25T08:44:02;20.43;;;4.60;;
6209;SDS011;3138;52.550;13.148;2023-04-25T08:46:29;30.50;;;4.70;;
6209;SDS011;3138;52.550;13.148;2023-04-25T08:49:00;17.00;;;5.13;;
6209;SDS011;3138;52.550;13.148;2023-04-25T08:51:29;28.07;;;5.03;;
6209;SDS011;3138;52.550;13.148;2023-04-25T08:54:04;35.53;;;4.33;;
6209;SDS011;3138;52.550;13.148;2023-04-25T08:56:35;23.77;;;4.93;;
6209;SDS011;3138;52.550;13.148;2023-04-25T08:59:03;46.70;;;4.77;;
6209;SDS011;3138;52.550;13.148;2023-04-25T09:01:33;19.07;;;3.80;;
6209;SDS011;3138;52.550;13.148;2023-04-25T09:04:02;18.93;;;3.80;;
6209;SDS011;3138;52.550;13.148;2023-04-25T09:06:29;20.47;;;5.87;;
6209;SDS011;3138;52.550;13.148;2023-04-25T09:09:00;18.80;;;5.17;;
6209;SDS011;3138;52.550;13.148;2023-04-25T09:11:28;20.60;;;4.97;;
6209;SDS011;3138;52.550;13.148;2023-04-25T09:14:09;23.93;;;5.83;;
6209;SDS011;3138;52.550;13.148;2023-04-25T09:16:47;20.33;;;6.00;;
6209;SDS011;3138;52.550;13.148;2023-04-25T09:19:29;20.80;;;4.47;;
6209;SDS011;3138;52.550;13.148;2023-04-25T09:21:57;16.30;;;3.60;;
6209;SDS011;3138;52.550;13.148;2023-04-25T09:24:32;19.30;;;4.53;;
6209;SDS011;3138;52.550;13.148;2023-04-25T09:27:02;28.80;;;4.50;;
6209;SDS011;3138;52.550;13.148;2023-04-25T09:29:30;13.97;;;3.40;;
6209;SDS011;3138;52.550;13.148;2023-04-25T09:34:46;20.70;;;3.13;;
6209;SDS011;3138;52.550;13.148;2023-04-25T09:37:17;18.30;;;3.80;;
6209;SDS011;3138;52.550;13.148;2023-04-25T09:39:45;20.40;;;3.43;;
6209;SDS011;3138;52.550;13.148;2023-04-25T09:42:13;16.40;;;3.40;;
6209;SDS011;3138;52.550;13.148;2023-04-25T09:44:43;25.10;;;4.10;;
6209;SDS011;3138;52.550;13.148;2023-04-25T09:47:11;18.43;;;3.70;;
6209;SDS011;3138;52.550;13.148;2023-04-25T09:49:42;18.00;;;4.40;;
6209;SDS011;3138;52.550;13.148;2023-04-25T09:52:13;16.67;;;3.57;;
6209;SDS011;3138;52.550;13.148;2023-04-25T09:54:40;29.17;;;4.50;;
6209;SDS011;3138;52.550;13.148;2023-04-25T09:57:10;23.47;;;4.03;;
6209;SDS011;3138;52.550;13.148;2023-04-25T09:59:38;17.87;;;3.07;;
6209;SDS011;3138;52.550;13.148;2023-04-25T10:02:09;12.00;;;2.80;;
6209;SDS011;3138;52.550;13.148;2023-04-25T10:04:37;12.63;;;2.87;;
6209;SDS011;3138;52.550;13.148;2023-04-25T10:07:05;14.20;;;3.00;;
6209;SDS011;3138;52.550;13.148;2023-04-25T10:09:35;21.33;;;4.00;;
6209;SDS011;3138;52.550;13.148;2023-04-25T10:12:04;20.20;;;4.33;;
6209;SDS011;3138;52.550;13.148;2023-04-25T10:14:32;19.87;;;3.27;;
6209;SDS011;3138;52.550;13.148;2023-04-25T10:16:59;19.57;;;2.97;;
6209;SDS011;3138;52.550;13.148;2023-04-25T10:19:27;12.63;;;3.70;;
6209;SDS011;3138;52.550;13.148;2023-04-25T10:21:56;32.37;;;4.73;;
6209;SDS011;3138;52.550;13.148;2023-04-25T10:24:29;23.97;;;4.67;;
6209;SDS011;3138;52.550;13.148;2023-04-25T10:26:57;11.93;;;4.10;;
6209;SDS011;3138;52.550;13.148;2023-04-25T10:29:25;13.70;;;3.03;;
6209;SDS011;3138;52.550;13.148;2023-04-25T10:31:52;11.43;;;3.33;;
6209;SDS011;3138;52.550;13.148;2023-04-25T10:34:23;11.37;;;2.73;;
6209;SDS011;3138;52.550;13.148;2023-04-25T10:36:52;14.10;;;3.07;;
6209;SDS011;3138;52.550;13.148;2023-04-25T10:39:23;13.87;;;3.23;;
6209;SDS011;3138;52.550;13.148;2023-04-25T10:41:53;28.23;;;3.50;;
6209;SDS011;3138;52.550;13.148;2023-04-25T10:44:23;10.00;;;2.60;;
6209;SDS011;3138;52.550;13.148;2023-04-25T10:46:54;7.33;;;3.07;;
6209;SDS011;3138;52.550;13.148;2023-04-25T10:49:30;21.07;;;3.70;;
6209;SDS011;3138;52.550;13.148;2023-04-25T10:52:11;14.00;;;3.27;;
6209;SDS011;3138;52.550;13.148;2023-04-25T10:54:42;20.77;;;5.00;;
6209;SDS011;3138;52.550;13.148;2023-04-25T10:57:31;29.83;;;3.70;;
6209;SDS011;3138;52.550;13.148;2023-04-25T11:00:06;12.63;;;2.67;;
6209;SDS011;3138;52.550;13.148;2023-04-25T11:02:42;17.57;;;3.77;;
6209;SDS011;3138;52.550;13.148;2023-04-25T11:05:18;15.20;;;3.27;;
6209;SDS011;3138;52.550;13.148;2023-04-25T11:07:52;18.13;;;2.83;;
6209;SDS011;3138;52.550;13.148;2023-04-25T11:10:24;15.87;;;2.50;;
6209;SDS011;3138;52.550;13.148;2023-04-25T11:12:52;17.00;;;3.17;;
6209;SDS011;3138;52.550;13.148;2023-04-25T11:15:20;20.10;;;3.20;;
6209;SDS011;3138;52.550;13.148;2023-04-25T11:17:47;12.73;;;2.70;;
6209;SDS011;3138;52.550;13.148;2023-04-25T11:20:14;11.23;;;2.97;;
6209;SDS011;3138;52.550;13.148;2023-04-25T11:22:41;18.30;;;2.60;;
6209;SDS011;3138;52.550;13.148;2023-04-25T11:25:10;13.97;;;3.33;;
6209;SDS011;3138;52.550;13.148;2023-04-25T11:27:38;11.60;;;2.87;;
6209;SDS011;3138;52.550;13.148;2023-04-25T11:30:15;17.00;;;2.37;;
6209;SDS011;3138;52.550;13.148;2023-04-25T11:32:44;15.93;;;2.80;;
6209;SDS011;3138;52.550;13.148;2023-04-25T11:35:11;12.97;;;3.70;;
6209;SDS011;3138;52.550;13.148;2023-04-25T11:37:38;7.57;;;2.90;;
6209;SDS011;3138;52.550;13.148;2023-04-25T11:40:06;11.20;;;2.90;;
6209;SDS011;3138;52.550;13.148;2023-04-25T11:42:35;4.50;;;1.80;;
6209;SDS011;3138;52.550;13.148;2023-04-25T11:45:03;9.80;;;2.57;;
6209;SDS011;3138;52.550;13.148;2023-04-25T11:47:31;12.93;;;2.80;;
6209;SDS011;3138;52.550;13.148;2023-04-25T11:50:01;18.50;;;3.27;;
6209;SDS011;3138;52.550;13.148;2023-04-25T11:52:39;7.93;;;2.63;;
6209;SDS011;3138;52.550;13.148;2023-04-25T11:55:07;16.03;;;3.03;;
6209;SDS011;3138;52.550;13.148;2023-04-25T11:57:35;24.43;;;3.07;;
6209;SDS011;3138;52.550;13.148;2023-04-25T12:00:11;7.40;;;2.90;;
6209;SDS011;3138;52.550;13.148;2023-04-25T12:02:40;16.80;;;3.07;;
6209;SDS011;3138;52.550;13.148;2023-04-25T12:05:09;12.17;;;2.37;;
6209;SDS011;3138;52.550;13.148;2023-04-25T12:07:37;7.27;;;2.67;;
6209;SDS011;3138;52.550;13.148;2023-04-25T12:10:06;8.33;;;2.70;;
6209;SDS011;3138;52.550;13.148;2023-04-25T12:12:34;12.67;;;3.57;;
6209;SDS011;3138;52.550;13.148;2023-04-25T12:15:08;5.67;;;2.97;;
6209;SDS011;3138;52.550;13.148;2023-04-25T12:17:37;14.17;;;3.13;;
6209;SDS011;3138;52.550;13.148;2023-04-25T12:20:10;9.50;;;2.53;;
6209;SDS011;3138;52.550;13.148;2023-04-25T12:22:40;9.30;;;2.47;;
6209;SDS011;3138;52.550;13.148;2023-04-25T12:25:09;15.97;;;3.10;;
6209;SDS011;3138;52.550;13.148;2023-04-25T12:27:37;12.67;;;3.20;;
6209;SDS011;3138;52.550;13.148;2023-04-25T12:30:05;21.27;;;4.33;;
6209;SDS011;3138;52.550;13.148;2023-04-25T12:32:36;13.67;;;3.03;;
6209;SDS011;3138;52.550;13.148;2023-04-25T12:35:04;24.20;;;4.00;;
6209;SDS011;3138;52.550;13.148;2023-04-25T12:37:33;10.03;;;2.50;;
6209;SDS011;3138;52.550;13.148;2023-04-25T12:40:00;23.27;;;3.20;;
6209;SDS011;3138;52.550;13.148;2023-04-25T12:42:28;8.80;;;2.53;;
6209;SDS011;3138;52.550;13.148;2023-04-25T12:44:55;34.90;;;3.47;;
6209;SDS011;3138;52.550;13.148;2023-04-25T12:47:21;19.90;;;2.60;;
6209;SDS011;3138;52.550;13.148;2023-04-25T12:49:48;13.10;;;2.33;;
6209;SDS011;3138;52.550;13.148;2023-04-25T12:52:15;10.23;;;2.63;;
6209;SDS011;3138;52.550;13.148;2023-04-25T12:54:43;10.03;;;2.83;;
6209;SDS011;3138;52.550;13.148;2023-04-25T12:57:10;7.30;;;2.20;;
6209;SDS011;3138;52.550;13.148;2023-04-25T12:59:37;6.27;;;2.00;;
6209;SDS011;3138;52.550;13.148;2023-04-25T13:02:04;9.00;;;3.00;;
6209;SDS011;3138;52.550;13.148;2023-04-25T13:04:30;13.60;;;3.70;;
6209;SDS011;3138;52.550;13.148;2023-04-25T13:06:57;10.10;;;2.50;;
6209;SDS011;3138;52.550;13.148;2023-04-25T13:09:24;6.70;;;2.10;;
6209;SDS011;3138;52.550;13.148;2023-04-25T13:11:53;14.87;;;2.30;;
6209;SDS011;3138;52.550;13.148;2023-04-25T13:14:19;4.33;;;1.80;;
6209;SDS011;3138;52.550;13.148;2023-04-25T13:16:46;9.13;;;2.83;;
6209;SDS011;3138;52.550;13.148;2023-04-25T13:19:13;11.63;;;2.50;;
6209;SDS011;3138;52.550;13.148;2023-04-25T13:21:40;10.20;;;2.30;;
6209;SDS011;3138;52.550;13.148;2023-04-25T13:24:07;8.23;;;2.73;;
6209;SDS011;3138;52.550;13.148;2023-04-25T13:26:33;12.33;;;2.43;;
6209;SDS011;3138;52.550;13.148;2023-04-25T13:29:02;10.43;;;2.50;;
6209;SDS011;3138;52.550;13.148;2023-04-25T13:31:29;9.97;;;2.30;;
6209;SDS011;3138;52.550;13.148;2023-04-25T13:33:56;6.37;;;2.17;;
6209;SDS011;3138;52.550;13.148;2023-04-25T13:36:23;4.53;;;2.00;;
6209;SDS011;3138;52.550;13.148;2023-04-25T13:38:50;14.87;;;3.27;;
6209;SDS011;3138;52.550;13.148;2023-04-25T13:41:17;8.23;;;2.40;;
6209;SDS011;3138;52.550;13.148;2023-04-25T13:43:45;5.67;;;2.47;;
6209;SDS011;3138;52.550;13.148;2023-04-25T13:46:14;9.53;;;2.30;;
6209;SDS011;3138;52.550;13.148;2023-04-25T13:48:41;14.43;;;3.57;;
6209;SDS011;3138;52.550;13.148;2023-04-25T13:51:12;7.93;;;2.10;;
6209;SDS011;3138;52.550;13.148;2023-04-25T13:53:40;13.13;;;2.87;;
6209;SDS011;3138;52.550;13.148;2023-04-25T13:56:07;6.47;;;2.43;;
6209;SDS011;3138;52.550;13.148;2023-04-25T13:58:34;10.27;;;2.10;;
6209;SDS011;3138;52.550;13.148;2023-04-25T14:01:01;6.27;;;1.90;;
6209;SDS011;3138;52.550;13.148;2023-04-25T14:03:29;6.27;;;1.67;;
6209;SDS011;3138;52.550;13.148;2023-04-25T14:05:56;8.27;;;1.90;;
6209;SDS011;3138;52.550;13.148;2023-04-25T14:08:23;14.87;;;2.07;;
6209;SDS011;3138;52.550;13.148;2023-04-25T14:10:50;13.70;;;3.47;;
6209;SDS011;3138;52.550;13.148;2023-04-25T14:13:17;21.20;;;2.97;;
6209;SDS011;3138;52.550;13.148;2023-04-25T14:15:44;8.83;;;2.90;;
6209;SDS011;3138;52.550;13.148;2023-04-25T14:18:11;10.73;;;2.40;;
6209;SDS011;3138;52.550;13.148;2023-04-25T14:20:39;11.80;;;2.30;;
6209;SDS011;3138;52.550;13.148;2023-04-25T14:23:06;10.10;;;2.20;;
6209;SDS011;3138;52.550;13.148;2023-04-25T14:25:33;26.10;;;3.20;;
6209;SDS011;3138;52.550;13.148;2023-04-25T14:28:01;11.80;;;2.43;;
6209;SDS011;3138;52.550;13.148;2023-04-25T14:30:28;6.67;;;2.17;;
6209;SDS011;3138;52.550;13.148;2023-04-25T14:32:55;17.57;;;2.17;;
6209;SDS011;3138;52.550;13.148;2023-04-25T14:35:21;3.77;;;1.60;;
6209;SDS011;3138;52.550;13.148;2023-04-25T14:37:50;5.90;;;1.93;;
6209;SDS011;3138;52.550;13.148;2023-04-25T14:40:16;12.07;;;2.73;;
6209;SDS011;3138;52.550;13.148;2023-04-25T14:42:47;9.23;;;2.40;;
6209;SDS011;3138;52.550;13.148;2023-04-25T14:45:14;14.43;;;2.30;;
6209;SDS011;3138;52.550;13.148;2023-04-25T14:47:40;4.83;;;1.90;;
6209;SDS011;3138;52.550;13.148;2023-04-25T14:50:07;5.27;;;1.60;;
6209;SDS011;3138;52.550;13.148;2023-04-25T14:52:35;11.30;;;1.93;;
6209;SDS011;3138;52.550;13.148;2023-04-25T14:55:03;7.97;;;2.20;;
6209;SDS011;3138;52.550;13.148;2023-04-25T14:57:30;7.33;;;1.80;;